sensor_id;sensor_type;location;lat;lon;timestamp;pressure;altitude;pressure_sealevel;temperature;humidity
61484;BME280;47349;55.640;37.692;2023-07-20T03:07:15;97938.00;;;13.55;100.00
61484;BME280;47349;55.640;37.692;2023-07-20T03:09:45;97910.25;;;13.54;100.00
61484;BME280;47349;55.640;37.692;2023-07-20T03:12:13;97922.28;;;13.63;100.00
61484;BME280;47349;55.640;37.692;2023-07-20T03:14:41;97928.53;;;13.81;100.00
61484;BME280;47349;55.640;37.692;2023-07-20T03:17:09;97926.94;;;13.68;100.00
61484;BME280;47349;55.640;37.692;2023-07-20T03:19:36;97915.22;;;13.74;100.00
61484;BME280;47349;55.640;37.692;2023-07-20T03:22:05;97919.50;;;13.87;99.72
61484;BME280;47349;55.640;37.692;2023-07-20T03:24:32;97915.22;;;13.74;100.00
61484;BME280;47349;55.640;37.692;2023-07-20T03:27:00;97915.09;;;13.81;99.71
61484;BME280;47349;55.640;37.692;2023-07-20T03:29:27;97933.91;;;13.93;99.78
61484;BME280;47349;55.640;37.692;2023-07-20T03:31:54;97934.84;;;13.86;99.81
61484;BME280;47349;55.640;37.692;2023-07-20T03:34:22;97930.34;;;14.04;98.84
61484;BME280;47349;55.640;37.692;2023-07-20T03:36:52;97905.84;;;14.05;98.06
61484;BME280;47349;55.640;37.692;2023-07-20T03:39:19;97941.72;;;14.23;98.09
61484;BME280;47349;55.640;37.692;2023-07-20T03:41:46;97939.59;;;14.25;97.79
61484;BME280;47349;55.640;37.692;2023-07-20T03:44:14;97919.59;;;14.21;97.66
61484;BME280;47349;55.640;37.692;2023-07-20T03:46:41;97932.84;;;14.22;97.13
61484;BME280;47349;55.640;37.692;2023-07-20T03:49:08;97928.28;;;14.39;96.61
61484;BME280;47349;55.640;37.692;2023-07-20T03:51:37;97948.75;;;14.52;95.87
61484;BME280;47349;55.640;37.692;2023-07-20T03:54:05;97938.06;;;14.57;95.25
61484;BME280;47349;55.640;37.692;2023-07-20T03:56:33;97940.84;;;14.62;94.29
61484;BME280;47349;55.640;37.692;2023-07-20T03:59:02;97924.97;;;14.83;92.98
61484;BME280;47349;55.640;37.692;2023-07-20T04:01:30;97935.75;;;14.83;92.37
61484;BME280;47349;55.640;37.692;2023-07-20T04:03:59;97959.88;;;15.06;91.73
61484;BME280;47349;55.640;37.692;2023-07-20T04:06:27;97932.69;;;15.13;90.15
61484;BME280;47349;55.640;37.692;2023-07-20T04:08:54;97937.13;;;15.19;89.75
61484;BME280;47349;55.640;37.692;2023-07-20T04:11:22;97958.66;;;15.53;88.52
61484;BME280;47349;55.640;37.692;2023-07-20T04:13:51;97939.09;;;15.46;87.67
61484;BME280;47349;55.640;37.692;2023-07-20T04:16:18;97963.97;;;15.48;87.51
61484;BME280;47349;55.640;37.692;2023-07-20T04:18:47;97943.25;;;15.53;87.88
61484;BME280;47349;55.640;37.692;2023-07-20T04:21:15;97938.72;;;15.59;86.86
61484;BME280;47349;55.640;37.692;2023-07-20T04:23:42;97943.13;;;15.43;87.44
61484;BME280;47349;55.640;37.692;2023-07-20T04:26:09;97934.44;;;15.19;87.82
61484;BME280;47349;55.640;37.692;2023-07-20T04:28:40;97943.00;;;15.16;88.52
61484;BME280;47349;55.640;37.692;2023-07-20T04:31:19;97938.41;;;15.33;88.38
61484;BME280;47349;55.640;37.692;2023-07-20T04:33:47;97952.03;;;15.43;87.24
61484;BME280;47349;55.640;37.692;2023-07-20T04:36:16;97970.22;;;15.70;87.33
61484;BME280;47349;55.640;37.692;2023-07-20T04:38:49;97932.25;;;15.60;86.83
61484;BME280;47349;55.640;37.692;2023-07-20T04:41:19;97964.19;;;15.63;86.77
61484;BME280;47349;55.640;37.692;2023-07-20T04:43:50;97945.06;;;15.48;86.08
61484;BME280;47349;55.640;37.692;2023-07-20T04:46:24;97945.56;;;15.45;87.23
61484;BME280;47349;55.640;37.692;2023-07-20T04:49:21;97961.34;;;15.53;86.87
61484;BME280;47349;55.640;37.692;2023-07-20T04:51:48;97972.63;;;15.50;86.43
61484;BME280;47349;55.640;37.692;2023-07-20T04:54:17;97960.28;;;15.54;86.06
61484;BME280;47349;55.640;37.692;2023-07-20T04:56:46;97911.16;;;15.35;85.30
61484;BME280;47349;55.640;37.692;2023-07-20T04:59:19;97974.50;;;15.66;86.35
61484;BME280;47349;55.640;37.692;2023-07-20T05:01:46;97957.59;;;15.76;85.09
61484;BME280;47349;55.640;37.692;2023-07-20T05:04:15;97982.50;;;15.78;85.00
61484;BME280;47349;55.640;37.692;2023-07-20T05:06:45;97958.44;;;15.76;84.01
61484;BME280;47349;55.640;37.692;2023-07-20T05:09:13;97947.16;;;15.84;83.57
61484;BME280;47349;55.640;37.692;2023-07-20T05:11:43;97958.50;;;15.81;82.44
61484;BME280;47349;55.640;37.692;2023-07-20T05:14:12;97988.13;;;15.98;80.79
61484;BME280;47349;55.640;37.692;2023-07-20T05:16:39;97987.00;;;15.94;80.09
61484;BME280;47349;55.640;37.692;2023-07-20T05:19:07;97944.19;;;16.08;79.47
61484;BME280;47349;55.640;37.692;2023-07-20T05:21:35;97943.59;;;16.01;80.27
61484;BME280;47349;55.640;37.692;2023-07-20T05:24:03;97929.44;;;15.93;80.34
61484;BME280;47349;55.640;37.692;2023-07-20T05:26:32;97943.44;;;15.90;80.94
61484;BME280;47349;55.640;37.692;2023-07-20T05:43:22;97945.03;;;16.35;78.11
61484;BME280;47349;55.640;37.692;2023-07-20T05:46:36;97943.81;;;16.21;78.35
61484;BME280;47349;55.640;37.692;2023-07-20T05:50:39;97942.31;;;16.35;77.04
61484;BME280;47349;55.640;37.692;2023-07-20T07:36:12;98023.41;;;18.84;58.43
61484;BME280;47349;55.640;37.692;2023-07-20T07:39:26;98012.53;;;18.84;58.45
61484;BME280;47349;55.640;37.692;2023-07-20T07:46:16;98014.72;;;18.82;57.22
61484;BME280;47349;55.640;37.692;2023-07-20T08:02:29;97974.28;;;18.86;53.20
61484;BME280;47349;55.640;37.692;2023-07-20T08:49:26;97991.31;;;19.52;54.59
61484;BME280;47349;55.640;37.692;2023-07-20T08:55:53;97995.25;;;20.06;53.78
61484;BME280;47349;55.640;37.692;2023-07-20T08:59:12;98004.22;;;20.12;53.80
61484;BME280;47349;55.640;37.692;2023-07-20T09:02:16;97996.34;;;20.05;53.92
61484;BME280;47349;55.640;37.692;2023-07-20T09:05:13;98034.75;;;19.93;53.88
61484;BME280;47349;55.640;37.692;2023-07-20T09:07:41;98003.25;;;19.67;54.84
61484;BME280;47349;55.640;37.692;2023-07-20T09:14:16;98009.25;;;19.69;54.50
61484;BME280;47349;55.640;37.692;2023-07-20T09:21:53;97983.13;;;19.78;54.28
61484;BME280;47349;55.640;37.692;2023-07-20T09:24:45;97997.84;;;19.62;55.17
61484;BME280;47349;55.640;37.692;2023-07-20T09:28:08;98030.16;;;19.48;55.48
61484;BME280;47349;55.640;37.692;2023-07-20T09:34:04;98032.66;;;19.19;57.43
61484;BME280;47349;55.640;37.692;2023-07-20T09:36:59;98039.69;;;18.94;60.55
61484;BME280;47349;55.640;37.692;2023-07-20T09:39:40;98027.47;;;18.77;62.51
61484;BME280;47349;55.640;37.692;2023-07-20T09:42:53;98037.41;;;18.45;62.15
61484;BME280;47349;55.640;37.692;2023-07-20T11:31:37;98094.56;;;19.02;67.10
61484;BME280;47349;55.640;37.692;2023-07-20T12:43:28;98030.31;;;18.34;73.37
61484;BME280;47349;55.640;37.692;2023-07-20T12:46:16;98093.13;;;18.06;67.46
61484;BME280;47349;55.640;37.692;2023-07-20T12:49:25;98075.72;;;17.96;72.96
61484;BME280;47349;55.640;37.692;2023-07-20T14:41:10;98062.00;;;24.94;46.21
61484;BME280;47349;55.640;37.692;2023-07-20T14:43:55;98019.25;;;25.60;43.56
61484;BME280;47349;55.640;37.692;2023-07-20T14:46:41;98059.28;;;25.61;43.74
61484;BME280;47349;55.640;37.692;2023-07-20T14:53:18;98053.63;;;26.77;41.31
61484;BME280;47349;55.640;37.692;2023-07-20T14:56:56;98058.09;;;26.07;41.93
61484;BME280;47349;55.640;37.692;2023-07-20T14:59:48;98054.09;;;26.61;41.68
61484;BME280;47349;55.640;37.692;2023-07-20T15:03:09;98059.69;;;25.23;43.82
61484;BME280;47349;55.640;37.692;2023-07-20T15:14:10;98039.06;;;25.48;44.00
61484;BME280;47349;55.640;37.692;2023-07-20T15:21:00;98036.72;;;24.05;46.37
61484;BME280;47349;55.640;37.692;2023-07-20T15:35:47;98055.81;;;24.88;44.18
61484;BME280;47349;55.640;37.692;2023-07-20T15:55:10;98054.13;;;24.78;38.32
61484;BME280;47349;55.640;37.692;2023-07-20T15:58:59;98088.16;;;25.13;37.25
61484;BME280;47349;55.640;37.692;2023-07-20T16:02:31;98056.50;;;24.94;37.01
61484;BME280;47349;55.640;37.692;2023-07-20T16:05:54;98044.28;;;25.13;36.92
61484;BME280;47349;55.640;37.692;2023-07-20T17:25:25;98101.28;;;20.86;49.64
61484;BME280;47349;55.640;37.692;2023-07-20T17:29:05;98109.09;;;20.43;50.14
61484;BME280;47349;55.640;37.692;2023-07-20T17:32:22;98135.28;;;20.19;51.29
61484;BME280;47349;55.640;37.692;2023-07-20T17:35:46;98118.75;;;19.90;52.09
61484;BME280;47349;55.640;37.692;2023-07-20T17:44:16;98120.94;;;19.47;52.38
